sensor_id;sensor_type;location;lat;lon;timestamp;pressure;altitude;pressure_sealevel;temperature;humidity
19086;BME280;9675;51.538;6.728;2023-02-15T00:02:02;102587.72;;;8.40;97.82
19086;BME280;9675;51.538;6.728;2023-02-15T00:04:29;102586.72;;;8.38;97.47
19086;BME280;9675;51.538;6.728;2023-02-15T00:07:13;102579.53;;;8.34;97.30
19086;BME280;9675;51.538;6.728;2023-02-15T00:09:41;102574.25;;;8.32;97.80
19086;BME280;9675;51.538;6.728;2023-02-15T00:12:10;102579.88;;;8.28;100.00
19086;BME280;9675;51.538;6.728;2023-02-15T00:14:37;102583.81;;;8.25;99.32
19086;BME280;9675;51.538;6.728;2023-02-15T00:17:04;102575.09;;;8.23;99.16
19086;BME280;9675;51.538;6.728;2023-02-15T00:19:31;102572.16;;;8.18;99.95
19086;BME280;9675;51.538;6.728;2023-02-15T00:21:58;102576.38;;;8.18;99.68
19086;BME280;9675;51.538;6.728;2023-02-15T00:24:27;102572.50;;;8.13;100.00
19086;BME280;9675;51.538;6.728;2023-02-15T00:26:54;102573.78;;;8.07;100.00
19086;BME280;9675;51.538;6.728;2023-02-15T00:29:21;102571.06;;;8.06;100.00
19086;BME280;9675;51.538;6.728;2023-02-15T00:31:48;102572.59;;;8.04;100.00
19086;BME280;9675;51.538;6.728;2023-02-15T00:34:18;102569.13;;;8.03;100.00
19086;BME280;9675;51.538;6.728;2023-02-15T00:36:46;102562.22;;;8.02;100.00
19086;BME280;9675;51.538;6.728;2023-02-15T00:39:14;102566.91;;;7.98;100.00
19086;BME280;9675;51.538;6.728;2023-02-15T00:41:43;102566.66;;;7.95;100.00
19086;BME280;9675;51.538;6.728;2023-02-15T00:44:10;102567.31;;;7.92;100.00
19086;BME280;9675;51.538;6.728;2023-02-15T00:46:37;102564.47;;;7.89;100.00
19086;BME280;9675;51.538;6.728;2023-02-15T00:49:05;102562.41;;;7.85;100.00
19086;BME280;9675;51.538;6.728;2023-02-15T00:51:32;102563.91;;;7.83;100.00
19086;BME280;9675;51.538;6.728;2023-02-15T00:53:59;102566.06;;;7.79;100.00
19086;BME280;9675;51.538;6.728;2023-02-15T00:56:26;102562.34;;;7.75;100.00
19086;BME280;9675;51.538;6.728;2023-02-15T00:58:55;102554.38;;;7.72;100.00
19086;BME280;9675;51.538;6.728;2023-02-15T01:01:23;102559.38;;;7.71;100.00
19086;BME280;9675;51.538;6.728;2023-02-15T01:03:51;102564.38;;;7.69;100.00
19086;BME280;9675;51.538;6.728;2023-02-15T01:06:18;102564.22;;;7.67;100.00
19086;BME280;9675;51.538;6.728;2023-02-15T01:08:47;102561.25;;;7.63;100.00
19086;BME280;9675;51.538;6.728;2023-02-15T01:11:18;102556.03;;;7.61;100.00
19086;BME280;9675;51.538;6.728;2023-02-15T01:13:48;102557.13;;;7.55;100.00
19086;BME280;9675;51.538;6.728;2023-02-15T01:16:17;102555.31;;;7.54;100.00
19086;BME280;9675;51.538;6.728;2023-02-15T01:18:45;102560.94;;;7.50;100.00
19086;BME280;9675;51.538;6.728;2023-02-15T01:21:14;102553.88;;;7.47;100.00
19086;BME280;9675;51.538;6.728;2023-02-15T01:23:42;102548.50;;;7.44;100.00
19086;BME280;9675;51.538;6.728;2023-02-15T01:26:10;102550.91;;;7.43;100.00
19086;BME280;9675;51.538;6.728;2023-02-15T01:28:37;102548.19;;;7.41;100.00
19086;BME280;9675;51.538;6.728;2023-02-15T01:31:06;102553.97;;;7.39;100.00
19086;BME280;9675;51.538;6.728;2023-02-15T01:33:35;102548.59;;;7.36;100.00
19086;BME280;9675;51.538;6.728;2023-02-15T01:36:04;102550.09;;;7.34;100.00
19086;BME280;9675;51.538;6.728;2023-02-15T01:38:32;102541.34;;;7.32;100.00
19086;BME280;9675;51.538;6.728;2023-02-15T01:40:59;102550.59;;;7.30;100.00
19086;BME280;9675;51.538;6.728;2023-02-15T01:43:46;102538.13;;;7.24;100.00
19086;BME280;9675;51.538;6.728;2023-02-15T01:46:16;102539.63;;;7.22;100.00
19086;BME280;9675;51.538;6.728;2023-02-15T01:48:48;102527.59;;;7.21;100.00
19086;BME280;9675;51.538;6.728;2023-02-15T01:51:21;102532.44;;;7.18;100.00
19086;BME280;9675;51.538;6.728;2023-02-15T01:53:55;102528.72;;;7.14;100.00
19086;BME280;9675;51.538;6.728;2023-02-15T01:56:30;102538.81;;;7.13;100.00
19086;BME280;9675;51.538;6.728;2023-02-15T01:59:01;102530.72;;;7.08;100.00
19086;BME280;9675;51.538;6.728;2023-02-15T02:01:30;102527.09;;;7.06;100.00
19086;BME280;9675;51.538;6.728;2023-02-15T02:04:08;102528.66;;;7.04;100.00
19086;BME280;9675;51.538;6.728;2023-02-15T02:06:37;102516.59;;;7.03;100.00
19086;BME280;9675;51.538;6.728;2023-02-15T02:09:06;102513.00;;;7.01;100.00
19086;BME280;9675;51.538;6.728;2023-02-15T02:11:34;102511.19;;;7.00;100.00
19086;BME280;9675;51.538;6.728;2023-02-15T02:14:02;102512.72;;;6.98;100.00
19086;BME280;9675;51.538;6.728;2023-02-15T02:16:41;102501.28;;;6.95;100.00
19086;BME280;9675;51.538;6.728;2023-02-15T02:19:57;102506.13;;;6.92;100.00
19086;BME280;9675;51.538;6.728;2023-02-15T02:23:12;102496.25;;;6.86;100.00
19086;BME280;9675;51.538;6.728;2023-02-15T02:29:29;102495.69;;;6.80;100.00
19086;BME280;9675;51.538;6.728;2023-02-15T02:35:15;102489.88;;;6.72;100.00
19086;BME280;9675;51.538;6.728;2023-02-15T02:37:53;102483.84;;;6.72;100.00
19086;BME280;9675;51.538;6.728;2023-02-15T02:40:36;102478.44;;;6.69;100.00
19086;BME280;9675;51.538;6.728;2023-02-15T02:43:17;102474.09;;;6.68;100.00
19086;BME280;9675;51.538;6.728;2023-02-15T02:45:56;102473.06;;;6.66;100.00
19086;BME280;9675;51.538;6.728;2023-02-15T02:48:28;102459.69;;;6.60;100.00
19086;BME280;9675;51.538;6.728;2023-02-15T02:50:58;102459.56;;;6.58;100.00
19086;BME280;9675;51.538;6.728;2023-02-15T02:53:28;102464.56;;;6.57;100.00
19086;BME280;9675;51.538;6.728;2023-02-15T02:55:59;102461.84;;;6.55;100.00
19086;BME280;9675;51.538;6.728;2023-02-15T02:58:34;102465.13;;;6.63;100.00
19086;BME280;9675;51.538;6.728;2023-02-15T03:01:09;102454.88;;;6.63;100.00
19086;BME280;9675;51.538;6.728;2023-02-15T03:03:42;102457.44;;;6.63;100.00
19086;BME280;9675;51.538;6.728;2023-02-15T03:06:17;102453.06;;;6.62;100.00
19086;BME280;9675;51.538;6.728;2023-02-15T03:08:50;102456.38;;;6.61;100.00
19086;BME280;9675;51.538;6.728;2023-02-15T03:11:18;102449.47;;;6.60;100.00
19086;BME280;9675;51.538;6.728;2023-02-15T03:13:48;102450.09;;;6.57;100.00
19086;BME280;9675;51.538;6.728;2023-02-15T03:16:18;102447.38;;;6.56;100.00
19086;BME280;9675;51.538;6.728;2023-02-15T03:18:58;102452.34;;;6.54;100.00
19086;BME280;9675;51.538;6.728;2023-02-15T03:21:35;102452.09;;;6.51;100.00
19086;BME280;9675;51.538;6.728;2023-02-15T03:24:09;102443.38;;;6.49;100.00
19086;BME280;9675;51.538;6.728;2023-02-15T03:26:39;102453.47;;;6.48;100.00
19086;BME280;9675;51.538;6.728;2023-02-15T03:29:07;102457.56;;;6.46;100.00
19086;BME280;9675;51.538;6.728;2023-02-15T03:31:41;102452.91;;;6.42;100.00
19086;BME280;9675;51.538;6.728;2023-02-15T03:34:13;102452.91;;;6.42;100.00
19086;BME280;9675;51.538;6.728;2023-02-15T03:36:47;102451.88;;;6.39;100.00
19086;BME280;9675;51.538;6.728;2023-02-15T03:39:24;102449.94;;;6.37;100.00
19086;BME280;9675;51.538;6.728;2023-02-15T03:41:58;102448.88;;;6.35;100.00
19086;BME280;9675;51.538;6.728;2023-02-15T03:44:30;102445.16;;;6.31;100.00
19086;BME280;9675;51.538;6.728;2023-02-15T03:47:04;102442.59;;;6.31;100.00
19086;BME280;9675;51.538;6.728;2023-02-15T03:49:40;102441.56;;;6.29;100.00
19086;BME280;9675;51.538;6.728;2023-02-15T03:52:14;102439.75;;;6.28;100.00
19086;BME280;9675;51.538;6.728;2023-02-15T03:54:43;102440.38;;;6.26;100.00
19086;BME280;9675;51.538;6.728;2023-02-15T03:57:17;102439.16;;;6.22;100.00
19086;BME280;9675;51.538;6.728;2023-02-15T04:00:09;102432.28;;;6.21;100.00
19086;BME280;9675;51.538;6.728;2023-02-15T04:03:20;102437.09;;;6.18;100.00
19086;BME280;9675;51.538;6.728;2023-02-15T04:05:48;102431.06;;;6.18;100.00
19086;BME280;9675;51.538;6.728;2023-02-15T04:08:16;102437.09;;;6.18;100.00
19086;BME280;9675;51.538;6.728;2023-02-15T04:10:43;102436.19;;;6.18;100.00
19086;BME280;9675;51.538;6.728;2023-02-15T04:13:19;102435.94;;;6.15;100.00
19086;BME280;9675;51.538;6.728;2023-02-15T04:15:46;102435.78;;;6.13;100.00
19086;BME280;9675;51.538;6.728;2023-02-15T04:18:32;102430.38;;;6.10;100.00
19086;BME280;9675;51.538;6.728;2023-02-15T04:21:18;102435.50;;;6.10;100.00
19086;BME280;9675;51.538;6.728;2023-02-15T04:24:05;102436.84;;;6.07;100.00
19086;BME280;9675;51.538;6.728;2023-02-15T04:26:50;102437.50;;;6.04;100.00
19086;BME280;9675;51.538;6.728;2023-02-15T04:29:21;102432.97;;;6.02;100.00
19086;BME280;9675;51.538;6.728;2023-02-15T04:31:50;102429.50;;;6.01;100.00
19086;BME280;9675;51.538;6.728;2023-02-15T04:34:17;102435.09;;;5.97;100.00
19086;BME280;9675;51.538;6.728;2023-02-15T04:36:44;102431.53;;;5.95;100.00
19086;BME280;9675;51.538;6.728;2023-02-15T04:39:15;102427.91;;;5.93;100.00
19086;BME280;9675;51.538;6.728;2023-02-15T04:41:43;102422.66;;;5.91;100.00
19086;BME280;9675;51.538;6.728;2023-02-15T04:44:11;102419.19;;;5.91;100.00
19086;BME280;9675;51.538;6.728;2023-02-15T04:46:38;102419.81;;;5.88;100.00
19086;BME280;9675;51.538;6.728;2023-02-15T04:49:05;102424.94;;;5.88;100.00
19086;BME280;9675;51.538;6.728;2023-02-15T04:51:32;102419.50;;;5.85;100.00
19086;BME280;9675;51.538;6.728;2023-02-15T04:53:59;102416.81;;;5.84;100.00
19086;BME280;9675;51.538;6.728;2023-02-15T04:56:27;102409.63;;;5.80;100.00
19086;BME280;9675;51.538;6.728;2023-02-15T04:58:55;102409.63;;;5.80;100.00
19086;BME280;9675;51.538;6.728;2023-02-15T05:01:23;102411.13;;;5.78;100.00
19086;BME280;9675;51.538;6.728;2023-02-15T05:03:50;102416.81;;;5.75;100.00
19086;BME280;9675;51.538;6.728;2023-02-15T05:06:17;102414.00;;;5.72;100.00
19086;BME280;9675;51.538;6.728;2023-02-15T05:08:44;102413.09;;;5.72;100.00
19086;BME280;9675;51.538;6.728;2023-02-15T05:11:11;102415.38;;;5.69;100.00
19086;BME280;9675;51.538;6.728;2023-02-15T05:13:39;102404.09;;;5.67;100.00
19086;BME280;9675;51.538;6.728;2023-02-15T05:16:06;102406.50;;;5.65;100.00
19086;BME280;9675;51.538;6.728;2023-02-15T05:18:33;102404.56;;;5.63;100.00
19086;BME280;9675;51.538;6.728;2023-02-15T05:21:00;102404.25;;;5.60;100.00
19086;BME280;9675;51.538;6.728;2023-02-15T05:23:27;102394.81;;;5.59;100.00
19086;BME280;9675;51.538;6.728;2023-02-15T05:25:54;102395.56;;;5.57;100.00
19086;BME280;9675;51.538;6.728;2023-02-15T05:28:52;102391.22;;;5.56;100.00
19086;BME280;9675;51.538;6.728;2023-02-15T05:31:19;102393.63;;;5.55;100.00
19086;BME280;9675;51.538;6.728;2023-02-15T05:33:47;102384.78;;;5.51;100.00
19086;BME280;9675;51.538;6.728;2023-02-15T05:36:14;102388.06;;;5.50;100.00
19086;BME280;9675;51.538;6.728;2023-02-15T05:38:41;102383.44;;;5.46;100.00
19086;BME280;9675;51.538;6.728;2023-02-15T05:41:17;102384.19;;;5.45;100.00
19086;BME280;9675;51.538;6.728;2023-02-15T05:43:44;102379.84;;;5.44;100.00
19086;BME280;9675;51.538;6.728;2023-02-15T05:46:13;102373.69;;;5.42;100.00
19086;BME280;9675;51.538;6.728;2023-02-15T05:48:40;102384.50;;;5.40;100.00
19086;BME280;9675;51.538;6.728;2023-02-15T05:51:09;102381.06;;;5.39;100.00
19086;BME280;9675;51.538;6.728;2023-02-15T05:53:38;102386.94;;;5.38;100.00
19086;BME280;9675;51.538;6.728;2023-02-15T05:56:08;102385.88;;;5.36;100.00
19086;BME280;9675;51.538;6.728;2023-02-15T05:58:38;102378.81;;;5.34;100.00
19086;BME280;9675;51.538;6.728;2023-02-15T06:01:12;102380.34;;;5.32;100.00
19086;BME280;9675;51.538;6.728;2023-02-15T06:03:40;102386.94;;;5.30;100.00
19086;BME280;9675;51.538;6.728;2023-02-15T06:06:07;102388.47;;;5.28;100.00
19086;BME280;9675;51.538;6.728;2023-02-15T06:08:36;102388.31;;;5.26;100.00
19086;BME280;9675;51.538;6.728;2023-02-15T06:11:05;102390.72;;;5.25;100.00
19086;BME280;9675;51.538;6.728;2023-02-15T06:13:32;102388.78;;;5.22;100.00
19086;BME280;9675;51.538;6.728;2023-02-15T06:16:00;102387.88;;;5.22;100.00
19086;BME280;9675;51.538;6.728;2023-02-15T06:18:28;102385.81;;;5.18;100.00
19086;BME280;9675;51.538;6.728;2023-02-15T06:20:55;102388.19;;;5.16;100.00
19086;BME280;9675;51.538;6.728;2023-02-15T06:23:22;102386.25;;;5.13;100.00
19086;BME280;9675;51.538;6.728;2023-02-15T06:25:49;102389.41;;;5.11;100.00
19086;BME280;9675;51.538;6.728;2023-02-15T06:28:17;102398.88;;;5.12;100.00
19086;BME280;9675;51.538;6.728;2023-02-15T06:30:44;102399.63;;;5.11;100.00
19086;BME280;9675;51.538;6.728;2023-02-15T06:33:11;102401.28;;;5.10;100.00
19086;BME280;9675;51.538;6.728;2023-02-15T06:35:39;102397.66;;;5.08;100.00
19086;BME280;9675;51.538;6.728;2023-02-15T06:38:06;102401.13;;;5.09;100.00
19086;BME280;9675;51.538;6.728;2023-02-15T06:40:33;102408.66;;;5.07;100.00
19086;BME280;9675;51.538;6.728;2023-02-15T06:43:00;102420.50;;;5.07;100.00
19086;BME280;9675;51.538;6.728;2023-02-15T06:45:27;102410.16;;;5.05;100.00
19086;BME280;9675;51.538;6.728;2023-02-15T06:47:54;102418.56;;;5.04;100.00
19086;BME280;9675;51.538;6.728;2023-02-15T06:50:22;102408.19;;;5.03;100.00
19086;BME280;9675;51.538;6.728;2023-02-15T06:52:56;102411.94;;;4.98;100.00
19086;BME280;9675;51.538;6.728;2023-02-15T06:55:23;102409.28;;;4.96;100.00
19086;BME280;9675;51.538;6.728;2023-02-15T06:57:50;102410.75;;;4.94;100.00
19086;BME280;9675;51.538;6.728;2023-02-15T07:00:18;102416.47;;;4.92;100.00
19086;BME280;9675;51.538;6.728;2023-02-15T07:02:46;102407.03;;;4.91;100.00
19086;BME280;9675;51.538;6.728;2023-02-15T07:05:13;102405.81;;;4.87;100.00
19086;BME280;9675;51.538;6.728;2023-02-15T07:07:40;102407.16;;;4.84;100.00
19086;BME280;9675;51.538;6.728;2023-02-15T07:10:09;102402.53;;;4.80;100.00
19086;BME280;9675;51.538;6.728;2023-02-15T07:12:36;102401.19;;;4.75;100.00
19086;BME280;9675;51.538;6.728;2023-02-15T07:15:08;102389.31;;;4.66;100.00
19086;BME280;9675;51.538;6.728;2023-02-15T07:17:36;102385.41;;;4.61;100.00
19086;BME280;9675;51.538;6.728;2023-02-15T07:20:06;102379.13;;;4.58;100.00
19086;BME280;9675;51.538;6.728;2023-02-15T07:22:35;102379.13;;;4.58;100.00
19086;BME280;9675;51.538;6.728;2023-02-15T07:25:03;102380.63;;;4.56;100.00
19086;BME280;9675;51.538;6.728;2023-02-15T07:27:32;102381.66;;;4.58;100.00
19086;BME280;9675;51.538;6.728;2023-02-15T07:29:59;102376.56;;;4.58;100.00
19086;BME280;9675;51.538;6.728;2023-02-15T07:32:28;102373.28;;;4.59;100.00
19086;BME280;9675;51.538;6.728;2023-02-15T07:34:56;102369.06;;;4.59;100.00
19086;BME280;9675;51.538;6.728;2023-02-15T07:37:24;102353.31;;;4.55;100.00
19086;BME280;9675;51.538;6.728;2023-02-15T07:39:52;102357.81;;;4.57;100.00
19086;BME280;9675;51.538;6.728;2023-02-15T07:42:19;102357.53;;;4.54;100.00
19086;BME280;9675;51.538;6.728;2023-02-15T07:44:48;102358.28;;;4.53;100.00
19086;BME280;9675;51.538;6.728;2023-02-15T07:47:16;102358.28;;;4.53;100.00
19086;BME280;9675;51.538;6.728;2023-02-15T07:49:43;102364.84;;;4.51;100.00
19086;BME280;9675;51.538;6.728;2023-02-15T07:52:10;102357.22;;;4.51;100.00
19086;BME280;9675;51.538;6.728;2023-02-15T07:54:37;102350.47;;;4.52;100.00
19086;BME280;9675;51.538;6.728;2023-02-15T07:57:04;102354.06;;;4.54;100.00
19086;BME280;9675;51.538;6.728;2023-02-15T07:59:31;102352.25;;;4.53;100.00
19086;BME280;9675;51.538;6.728;2023-02-15T08:01:59;102349.88;;;4.54;100.00
19086;BME280;9675;51.538;6.728;2023-02-15T08:04:26;102345.06;;;4.57;100.00
19086;BME280;9675;51.538;6.728;2023-02-15T08:06:53;102351.97;;;4.58;100.00
19086;BME280;9675;51.538;6.728;2023-02-15T08:09:21;102341.00;;;4.59;100.00
19086;BME280;9675;51.538;6.728;2023-02-15T08:11:49;102341.19;;;4.61;100.00
19086;BME280;9675;51.538;6.728;2023-02-15T08:14:18;102338.75;;;4.62;100.00
19086;BME280;9675;51.538;6.728;2023-02-15T08:16:47;102339.19;;;4.67;100.00
19086;BME280;9675;51.538;6.728;2023-02-15T08:19:19;102339.06;;;4.65;100.00
19086;BME280;9675;51.538;6.728;2023-02-15T08:21:49;102339.34;;;4.68;100.00
19086;BME280;9675;51.538;6.728;2023-02-15T08:24:19;102330.19;;;4.70;100.00
19086;BME280;9675;51.538;6.728;2023-02-15T08:26:47;102327.03;;;4.73;100.00
19086;BME280;9675;51.538;6.728;2023-02-15T08:29:16;102324.47;;;4.73;100.00
19086;BME280;9675;51.538;6.728;2023-02-15T08:31:45;102326.13;;;4.72;100.00
19086;BME280;9675;51.538;6.728;2023-02-15T08:34:17;102323.56;;;4.72;100.00
19086;BME280;9675;51.538;6.728;2023-02-15T08:36:45;102325.22;;;4.72;100.00
19086;BME280;9675;51.538;6.728;2023-02-15T08:39:14;102319.38;;;4.73;100.00
19086;BME280;9675;51.538;6.728;2023-02-15T08:41:44;102313.53;;;4.74;100.00
19086;BME280;9675;51.538;6.728;2023-02-15T08:44:13;102305.28;;;4.77;100.00
19086;BME280;9675;51.538;6.728;2023-02-15T08:46:43;102316.50;;;4.79;100.00
19086;BME280;9675;51.538;6.728;2023-02-15T08:49:15;102306.63;;;4.82;100.00
19086;BME280;9675;51.538;6.728;2023-02-15T08:51:44;102314.84;;;4.88;100.00
19086;BME280;9675;51.538;6.728;2023-02-15T08:54:14;102311.06;;;4.93;100.00
19086;BME280;9675;51.538;6.728;2023-02-15T08:56:43;102301.31;;;4.97;100.00
19086;BME280;9675;51.538;6.728;2023-02-15T08:59:14;102310.31;;;5.02;100.00
19086;BME280;9675;51.538;6.728;2023-02-15T09:01:42;102310.13;;;5.09;100.00
19086;BME280;9675;51.538;6.728;2023-02-15T09:04:09;102301.88;;;5.12;100.00
19086;BME280;9675;51.538;6.728;2023-02-15T09:06:37;102309.91;;;5.25;100.00
19086;BME280;9675;51.538;6.728;2023-02-15T09:09:06;102302.81;;;5.31;100.00
19086;BME280;9675;51.538;6.728;2023-02-15T09:11:36;102303.69;;;5.40;100.00
19086;BME280;9675;51.538;6.728;2023-02-15T09:14:05;102299.41;;;5.49;100.00
19086;BME280;9675;51.538;6.728;2023-02-15T09:16:36;102296.84;;;5.58;100.00
19086;BME280;9675;51.538;6.728;2023-02-15T09:19:04;102295.13;;;5.67;100.00
19086;BME280;9675;51.538;6.728;2023-02-15T09:21:33;102295.84;;;5.75;100.00
19086;BME280;9675;51.538;6.728;2023-02-15T09:24:06;102295.78;;;5.83;100.00
19086;BME280;9675;51.538;6.728;2023-02-15T09:26:37;102298.28;;;5.92;100.00
19086;BME280;9675;51.538;6.728;2023-02-15T09:29:06;102305.03;;;6.00;100.00
19086;BME280;9675;51.538;6.728;2023-02-15T09:31:38;102309.16;;;6.08;100.00
19086;BME280;9675;51.538;6.728;2023-02-15T09:34:06;102305.66;;;6.16;100.00
19086;BME280;9675;51.538;6.728;2023-02-15T09:36:35;102303.78;;;6.24;100.00
19086;BME280;9675;51.538;6.728;2023-02-15T09:39:09;102310.59;;;6.33;100.00
19086;BME280;9675;51.538;6.728;2023-02-15T09:42:16;102308.09;;;6.44;100.00
19086;BME280;9675;51.538;6.728;2023-02-15T09:45:16;102310.72;;;6.54;100.00
19086;BME280;9675;51.538;6.728;2023-02-15T09:48:35;102306.06;;;6.68;100.00
19086;BME280;9675;51.538;6.728;2023-02-15T09:51:53;102294.19;;;6.79;100.00
19086;BME280;9675;51.538;6.728;2023-02-15T09:54:53;102290.44;;;6.94;100.00
19086;BME280;9675;51.538;6.728;2023-02-15T09:57:37;102302.63;;;7.07;100.00
19086;BME280;9675;51.538;6.728;2023-02-15T10:00:21;102297.53;;;7.17;100.00
19086;BME280;9675;51.538;6.728;2023-02-15T10:03:24;102285.41;;;7.24;100.00
19086;BME280;9675;51.538;6.728;2023-02-15T10:06:20;102296.31;;;7.42;100.00
19086;BME280;9675;51.538;6.728;2023-02-15T10:09:24;102293.13;;;7.55;100.00
19086;BME280;9675;51.538;6.728;2023-02-15T10:12:22;102309.66;;;7.68;100.00
19086;BME280;9675;51.538;6.728;2023-02-15T10:15:31;102303.00;;;7.81;100.00
19086;BME280;9675;51.538;6.728;2023-02-15T10:21:11;102296.72;;;7.97;100.00
19086;BME280;9675;51.538;6.728;2023-02-15T10:24:15;102298.25;;;8.05;100.00
19086;BME280;9675;51.538;6.728;2023-02-15T10:26:47;102287.19;;;8.17;100.00
19086;BME280;9675;51.538;6.728;2023-02-15T10:29:27;102292.31;;;8.27;98.22
19086;BME280;9675;51.538;6.728;2023-02-15T10:32:09;102295.94;;;8.39;97.67
19086;BME280;9675;51.538;6.728;2023-02-15T10:34:49;102297.16;;;8.54;94.34
19086;BME280;9675;51.538;6.728;2023-02-15T10:37:47;102287.22;;;8.69;90.46
19086;BME280;9675;51.538;6.728;2023-02-15T10:40:26;102286.28;;;8.78;89.16
19086;BME280;9675;51.538;6.728;2023-02-15T10:43:24;102284.34;;;8.86;88.43
19086;BME280;9675;51.538;6.728;2023-02-15T10:46:08;102280.91;;;8.97;87.65
19086;BME280;9675;51.538;6.728;2023-02-15T10:49:02;102285.13;;;9.07;86.50
19086;BME280;9675;51.538;6.728;2023-02-15T10:51:45;102278.69;;;9.12;86.46
19086;BME280;9675;51.538;6.728;2023-02-15T10:54:30;102270.00;;;9.21;83.12
19086;BME280;9675;51.538;6.728;2023-02-15T10:57:13;102271.59;;;9.31;84.07
19086;BME280;9675;51.538;6.728;2023-02-15T11:00:09;102263.47;;;9.36;82.96
19086;BME280;9675;51.538;6.728;2023-02-15T11:03:02;102262.50;;;9.46;82.07
19086;BME280;9675;51.538;6.728;2023-02-15T11:05:45;102266.88;;;9.59;81.02
19086;BME280;9675;51.538;6.728;2023-02-15T11:08:19;102265.81;;;9.67;81.06
19086;BME280;9675;51.538;6.728;2023-02-15T11:10:56;102265.72;;;9.77;80.99
19086;BME280;9675;51.538;6.728;2023-02-15T11:13:32;102271.69;;;9.88;79.73
19086;BME280;9675;51.538;6.728;2023-02-15T11:16:05;102269.91;;;9.98;77.51
19086;BME280;9675;51.538;6.728;2023-02-15T11:18:43;102255.81;;;10.05;76.67
19086;BME280;9675;51.538;6.728;2023-02-15T11:21:20;102260.75;;;10.13;76.92
19086;BME280;9675;51.538;6.728;2023-02-15T11:23:51;102267.72;;;10.26;75.53
19086;BME280;9675;51.538;6.728;2023-02-15T11:26:26;102259.91;;;10.36;74.27
19086;BME280;9675;51.538;6.728;2023-02-15T11:28:59;102267.50;;;10.46;72.95
19086;BME280;9675;51.538;6.728;2023-02-15T11:31:41;102267.41;;;10.56;73.81
19086;BME280;9675;51.538;6.728;2023-02-15T11:34:20;102270.94;;;10.70;72.32
19086;BME280;9675;51.538;6.728;2023-02-15T11:36:52;102264.00;;;10.81;71.30
19086;BME280;9675;51.538;6.728;2023-02-15T11:39:23;102253.53;;;10.91;71.03
19086;BME280;9675;51.538;6.728;2023-02-15T11:42:01;102254.19;;;11.00;70.60
19086;BME280;9675;51.538;6.728;2023-02-15T11:44:35;102246.88;;;11.06;70.13
19086;BME280;9675;51.538;6.728;2023-02-15T11:47:10;102238.81;;;11.13;70.78
19086;BME280;9675;51.538;6.728;2023-02-15T11:49:40;102235.84;;;11.20;70.13
19086;BME280;9675;51.538;6.728;2023-02-15T11:52:15;102236.16;;;11.25;68.71
19086;BME280;9675;51.538;6.728;2023-02-15T11:54:48;102237.91;;;11.37;68.08
19086;BME280;9675;51.538;6.728;2023-02-15T11:57:22;102235.03;;;11.46;67.16
19086;BME280;9675;51.538;6.728;2023-02-15T12:00:01;102235.59;;;11.54;69.18
19086;BME280;9675;51.538;6.728;2023-02-15T12:02:33;102223.66;;;11.56;68.48
19086;BME280;9675;51.538;6.728;2023-02-15T12:05:12;102213.75;;;11.62;67.93
19086;BME280;9675;51.538;6.728;2023-02-15T12:07:44;102202.34;;;11.71;67.65
19086;BME280;9675;51.538;6.728;2023-02-15T12:10:20;102200.44;;;11.80;66.19
19086;BME280;9675;51.538;6.728;2023-02-15T12:13:10;102202.13;;;11.80;67.51
19086;BME280;9675;51.538;6.728;2023-02-15T12:15:43;102193.69;;;11.82;67.61
19086;BME280;9675;51.538;6.728;2023-02-15T12:18:27;102186.16;;;11.85;67.26
19086;BME280;9675;51.538;6.728;2023-02-15T12:21:06;102183.88;;;11.90;66.43
19086;BME280;9675;51.538;6.728;2023-02-15T12:23:42;102181.88;;;11.99;65.67
19086;BME280;9675;51.538;6.728;2023-02-15T12:26:11;102187.63;;;12.08;65.46
19086;BME280;9675;51.538;6.728;2023-02-15T12:28:42;102182.88;;;12.14;65.52
19086;BME280;9675;51.538;6.728;2023-02-15T12:31:21;102189.63;;;12.25;65.92
19086;BME280;9675;51.538;6.728;2023-02-15T12:33:53;102175.31;;;12.30;65.65
19086;BME280;9675;51.538;6.728;2023-02-15T12:36:25;102173.94;;;12.35;64.94
19086;BME280;9675;51.538;6.728;2023-02-15T12:39:17;102182.25;;;12.45;64.98
19086;BME280;9675;51.538;6.728;2023-02-15T12:41:56;102176.69;;;12.52;64.70
19086;BME280;9675;51.538;6.728;2023-02-15T12:44:26;102172.81;;;12.58;65.00
19086;BME280;9675;51.538;6.728;2023-02-15T12:47:01;102174.06;;;12.65;64.53
19086;BME280;9675;51.538;6.728;2023-02-15T12:49:30;102169.47;;;12.74;63.17
19086;BME280;9675;51.538;6.728;2023-02-15T12:52:01;102164.13;;;12.99;62.69
19086;BME280;9675;51.538;6.728;2023-02-15T12:54:36;102168.56;;;13.14;62.46
19086;BME280;9675;51.538;6.728;2023-02-15T12:57:22;102160.88;;;13.16;61.19
19086;BME280;9675;51.538;6.728;2023-02-15T12:59:53;102158.38;;;13.17;61.86
19086;BME280;9675;51.538;6.728;2023-02-15T13:02:29;102162.13;;;13.23;61.19
19086;BME280;9675;51.538;6.728;2023-02-15T13:05:14;102151.25;;;13.28;61.00
19086;BME280;9675;51.538;6.728;2023-02-15T13:07:51;102160.41;;;13.36;60.15
19086;BME280;9675;51.538;6.728;2023-02-15T13:10:28;102146.63;;;13.37;60.43
19086;BME280;9675;51.538;6.728;2023-02-15T13:12:57;102140.84;;;13.41;60.29
19086;BME280;9675;51.538;6.728;2023-02-15T13:15:34;102128.25;;;13.47;59.39
19086;BME280;9675;51.538;6.728;2023-02-15T13:18:05;102127.72;;;13.53;59.85
19086;BME280;9675;51.538;6.728;2023-02-15T13:20:38;102128.97;;;13.59;59.81
19086;BME280;9675;51.538;6.728;2023-02-15T13:23:24;102116.66;;;13.70;58.46
19086;BME280;9675;51.538;6.728;2023-02-15T13:25:56;102117.16;;;13.79;58.54
19086;BME280;9675;51.538;6.728;2023-02-15T13:28:36;102106.53;;;13.89;58.07
19086;BME280;9675;51.538;6.728;2023-02-15T13:31:14;102114.63;;;13.95;56.81
19086;BME280;9675;51.538;6.728;2023-02-15T13:33:46;102101.94;;;14.00;55.99
19086;BME280;9675;51.538;6.728;2023-02-15T13:36:25;102109.16;;;14.05;55.71
19086;BME280;9675;51.538;6.728;2023-02-15T13:39:13;102101.59;;;14.09;55.88
19086;BME280;9675;51.538;6.728;2023-02-15T13:41:54;102099.94;;;14.11;55.58
19086;BME280;9675;51.538;6.728;2023-02-15T13:44:44;102095.13;;;14.17;56.02